sensor_id;sensor_type;location;lat;lon;timestamp;pressure;altitude;pressure_sealevel;temperature
75822;BMP180;64454;51.984;9.838;2023-08-08T00:01:48;99925.00;;;13.90
75822;BMP180;64454;51.984;9.838;2023-08-08T00:04:17;99928.00;;;13.80
75822;BMP180;64454;51.984;9.838;2023-08-08T00:06:46;99922.00;;;13.60
75822;BMP180;64454;51.984;9.838;2023-08-08T00:09:15;99918.00;;;13.80
75822;BMP180;64454;51.984;9.838;2023-08-08T00:11:43;99925.00;;;14.00
75822;BMP180;64454;51.984;9.838;2023-08-08T00:14:10;99916.00;;;14.10
75822;BMP180;64454;51.984;9.838;2023-08-08T00:16:37;99914.00;;;14.30
75822;BMP180;64454;51.984;9.838;2023-08-08T00:19:04;99917.00;;;14.20
75822;BMP180;64454;51.984;9.838;2023-08-08T00:21:31;99917.00;;;14.30
75822;BMP180;64454;51.984;9.838;2023-08-08T00:24:00;99913.00;;;13.90
75822;BMP180;64454;51.984;9.838;2023-08-08T00:26:27;99908.00;;;14.10
75822;BMP180;64454;51.984;9.838;2023-08-08T00:28:53;99919.00;;;14.40
75822;BMP180;64454;51.984;9.838;2023-08-08T00:31:20;99910.00;;;14.30
75822;BMP180;64454;51.984;9.838;2023-08-08T00:33:47;99903.00;;;14.20
75822;BMP180;64454;51.984;9.838;2023-08-08T00:36:14;99901.00;;;14.40
75822;BMP180;64454;51.984;9.838;2023-08-08T00:38:41;99897.00;;;14.40
75822;BMP180;64454;51.984;9.838;2023-08-08T00:41:09;99893.00;;;14.30
75822;BMP180;64454;51.984;9.838;2023-08-08T00:43:36;99893.00;;;14.20
75822;BMP180;64454;51.984;9.838;2023-08-08T00:46:03;99890.00;;;14.30
75822;BMP180;64454;51.984;9.838;2023-08-08T00:48:31;99878.00;;;14.60
75822;BMP180;64454;51.984;9.838;2023-08-08T00:50:59;99881.00;;;14.60
75822;BMP180;64454;51.984;9.838;2023-08-08T00:53:27;99872.00;;;14.40
75822;BMP180;64454;51.984;9.838;2023-08-08T00:55:58;99875.00;;;14.50
75822;BMP180;64454;51.984;9.838;2023-08-08T00:58:27;99872.00;;;14.30
75822;BMP180;64454;51.984;9.838;2023-08-08T01:00:55;99871.00;;;14.50
75822;BMP180;64454;51.984;9.838;2023-08-08T01:03:25;99868.00;;;14.50
75822;BMP180;64454;51.984;9.838;2023-08-08T01:06:02;99860.00;;;14.50
75822;BMP180;64454;51.984;9.838;2023-08-08T01:08:39;99865.00;;;14.60
75822;BMP180;64454;51.984;9.838;2023-08-08T01:11:09;99867.00;;;14.70
75822;BMP180;64454;51.984;9.838;2023-08-08T01:13:39;99865.00;;;14.50
75822;BMP180;64454;51.984;9.838;2023-08-08T01:16:07;99858.00;;;14.70
75822;BMP180;64454;51.984;9.838;2023-08-08T01:18:36;99859.00;;;14.70
75822;BMP180;64454;51.984;9.838;2023-08-08T01:21:05;99852.00;;;14.70
75822;BMP180;64454;51.984;9.838;2023-08-08T01:23:43;99847.00;;;14.50
75822;BMP180;64454;51.984;9.838;2023-08-08T01:26:13;99840.00;;;14.60
75822;BMP180;64454;51.984;9.838;2023-08-08T01:28:42;99845.00;;;14.60
75822;BMP180;64454;51.984;9.838;2023-08-08T01:31:10;99843.00;;;14.70
75822;BMP180;64454;51.984;9.838;2023-08-08T01:33:37;99841.00;;;14.80
75822;BMP180;64454;51.984;9.838;2023-08-08T01:36:13;99843.00;;;14.70
75822;BMP180;64454;51.984;9.838;2023-08-08T01:38:44;99835.00;;;14.80
75822;BMP180;64454;51.984;9.838;2023-08-08T01:41:16;99842.00;;;14.60
75822;BMP180;64454;51.984;9.838;2023-08-08T01:43:45;99834.00;;;14.70
75822;BMP180;64454;51.984;9.838;2023-08-08T01:46:13;99840.00;;;14.80
75822;BMP180;64454;51.984;9.838;2023-08-08T01:48:40;99848.00;;;14.80
75822;BMP180;64454;51.984;9.838;2023-08-08T01:51:06;99838.00;;;14.40
75822;BMP180;64454;51.984;9.838;2023-08-08T01:53:33;99840.00;;;14.30
75822;BMP180;64454;51.984;9.838;2023-08-08T01:56:00;99840.00;;;14.60
75822;BMP180;64454;51.984;9.838;2023-08-08T01:58:30;99827.00;;;14.60
75822;BMP180;64454;51.984;9.838;2023-08-08T02:00:56;99830.00;;;14.50
75822;BMP180;64454;51.984;9.838;2023-08-08T02:03:23;99834.00;;;14.50
75822;BMP180;64454;51.984;9.838;2023-08-08T02:05:50;99832.00;;;14.40
75822;BMP180;64454;51.984;9.838;2023-08-08T02:08:17;99834.00;;;14.80
75822;BMP180;64454;51.984;9.838;2023-08-08T02:10:44;99824.00;;;14.60
75822;BMP180;64454;51.984;9.838;2023-08-08T02:13:11;99819.00;;;14.70
75822;BMP180;64454;51.984;9.838;2023-08-08T02:15:39;99820.00;;;14.60
75822;BMP180;64454;51.984;9.838;2023-08-08T02:18:06;99819.00;;;14.60
75822;BMP180;64454;51.984;9.838;2023-08-08T02:20:34;99818.00;;;14.50
75822;BMP180;64454;51.984;9.838;2023-08-08T02:23:01;99817.00;;;14.30
75822;BMP180;64454;51.984;9.838;2023-08-08T02:25:28;99804.00;;;14.70
75822;BMP180;64454;51.984;9.838;2023-08-08T02:27:56;99805.00;;;14.50
75822;BMP180;64454;51.984;9.838;2023-08-08T02:30:23;99803.00;;;14.60
75822;BMP180;64454;51.984;9.838;2023-08-08T02:32:51;99812.00;;;14.70
75822;BMP180;64454;51.984;9.838;2023-08-08T02:35:19;99811.00;;;14.80
75822;BMP180;64454;51.984;9.838;2023-08-08T02:37:46;99804.00;;;14.70
75822;BMP180;64454;51.984;9.838;2023-08-08T02:40:12;99795.00;;;14.60
75822;BMP180;64454;51.984;9.838;2023-08-08T02:42:39;99792.00;;;14.70
75822;BMP180;64454;51.984;9.838;2023-08-08T02:45:07;99791.00;;;14.90
75822;BMP180;64454;51.984;9.838;2023-08-08T02:47:34;99797.00;;;15.00
75822;BMP180;64454;51.984;9.838;2023-08-08T02:50:03;99801.00;;;14.80
75822;BMP180;64454;51.984;9.838;2023-08-08T02:52:30;99802.00;;;14.70
75822;BMP180;64454;51.984;9.838;2023-08-08T02:54:57;99785.00;;;14.60
75822;BMP180;64454;51.984;9.838;2023-08-08T02:57:24;99787.00;;;14.50
75822;BMP180;64454;51.984;9.838;2023-08-08T02:59:51;99796.00;;;14.80
75822;BMP180;64454;51.984;9.838;2023-08-08T03:02:18;99791.00;;;14.80
75822;BMP180;64454;51.984;9.838;2023-08-08T03:04:44;99785.00;;;14.80
75822;BMP180;64454;51.984;9.838;2023-08-08T03:07:13;99777.00;;;14.60
75822;BMP180;64454;51.984;9.838;2023-08-08T03:09:39;99779.00;;;14.60
75822;BMP180;64454;51.984;9.838;2023-08-08T03:12:08;99784.00;;;14.90
75822;BMP180;64454;51.984;9.838;2023-08-08T03:14:35;99778.00;;;14.70
75822;BMP180;64454;51.984;9.838;2023-08-08T03:17:02;99772.00;;;14.80
75822;BMP180;64454;51.984;9.838;2023-08-08T03:19:29;99775.00;;;14.80
75822;BMP180;64454;51.984;9.838;2023-08-08T03:21:56;99771.00;;;14.70
75822;BMP180;64454;51.984;9.838;2023-08-08T03:24:24;99782.00;;;14.80
75822;BMP180;64454;51.984;9.838;2023-08-08T03:26:51;99767.00;;;14.80
75822;BMP180;64454;51.984;9.838;2023-08-08T03:29:20;99772.00;;;14.80
75822;BMP180;64454;51.984;9.838;2023-08-08T03:31:48;99779.00;;;14.70
75822;BMP180;64454;51.984;9.838;2023-08-08T03:34:16;99771.00;;;14.70
75822;BMP180;64454;51.984;9.838;2023-08-08T03:36:45;99762.00;;;14.70
75822;BMP180;64454;51.984;9.838;2023-08-08T03:39:12;99763.00;;;14.80
75822;BMP180;64454;51.984;9.838;2023-08-08T03:41:40;99768.00;;;14.40
75822;BMP180;64454;51.984;9.838;2023-08-08T03:44:07;99783.00;;;14.40
75822;BMP180;64454;51.984;9.838;2023-08-08T03:46:34;99774.00;;;14.30
75822;BMP180;64454;51.984;9.838;2023-08-08T03:49:01;99776.00;;;14.30
75822;BMP180;64454;51.984;9.838;2023-08-08T03:51:29;99785.00;;;14.50
75822;BMP180;64454;51.984;9.838;2023-08-08T03:53:56;99785.00;;;14.70
75822;BMP180;64454;51.984;9.838;2023-08-08T03:56:23;99779.00;;;14.80
75822;BMP180;64454;51.984;9.838;2023-08-08T03:58:51;99778.00;;;14.60
75822;BMP180;64454;51.984;9.838;2023-08-08T04:01:18;99777.00;;;14.60
75822;BMP180;64454;51.984;9.838;2023-08-08T04:03:44;99768.00;;;14.70
75822;BMP180;64454;51.984;9.838;2023-08-08T04:06:11;99766.00;;;14.40
75822;BMP180;64454;51.984;9.838;2023-08-08T04:08:38;99770.00;;;14.50
75822;BMP180;64454;51.984;9.838;2023-08-08T04:11:05;99770.00;;;14.50
75822;BMP180;64454;51.984;9.838;2023-08-08T04:13:32;99772.00;;;14.50
75822;BMP180;64454;51.984;9.838;2023-08-08T04:16:00;99771.00;;;14.50
75822;BMP180;64454;51.984;9.838;2023-08-08T04:18:27;99769.00;;;14.50
75822;BMP180;64454;51.984;9.838;2023-08-08T04:20:54;99777.00;;;14.60
75822;BMP180;64454;51.984;9.838;2023-08-08T04:23:21;99772.00;;;14.50
75822;BMP180;64454;51.984;9.838;2023-08-08T04:25:51;99772.00;;;14.60
75822;BMP180;64454;51.984;9.838;2023-08-08T04:28:18;99772.00;;;14.50
75822;BMP180;64454;51.984;9.838;2023-08-08T04:30:45;99773.00;;;14.70
75822;BMP180;64454;51.984;9.838;2023-08-08T04:33:13;99772.00;;;14.60
75822;BMP180;64454;51.984;9.838;2023-08-08T04:35:40;99774.00;;;14.50
75822;BMP180;64454;51.984;9.838;2023-08-08T04:38:08;99775.00;;;14.50
75822;BMP180;64454;51.984;9.838;2023-08-08T04:40:35;99774.00;;;14.60
75822;BMP180;64454;51.984;9.838;2023-08-08T04:43:02;99770.00;;;14.70
75822;BMP180;64454;51.984;9.838;2023-08-08T04:45:29;99767.00;;;14.70
75822;BMP180;64454;51.984;9.838;2023-08-08T04:47:56;99766.00;;;14.50
75822;BMP180;64454;51.984;9.838;2023-08-08T04:50:24;99762.00;;;14.60
75822;BMP180;64454;51.984;9.838;2023-08-08T04:52:51;99761.00;;;14.70
75822;BMP180;64454;51.984;9.838;2023-08-08T04:55:18;99761.00;;;14.50
75822;BMP180;64454;51.984;9.838;2023-08-08T04:57:45;99759.00;;;14.70
75822;BMP180;64454;51.984;9.838;2023-08-08T05:00:14;99762.00;;;14.80
75822;BMP180;64454;51.984;9.838;2023-08-08T05:02:41;99749.00;;;14.70
75822;BMP180;64454;51.984;9.838;2023-08-08T05:05:08;99752.00;;;14.90
75822;BMP180;64454;51.984;9.838;2023-08-08T05:07:37;99744.00;;;14.80
75822;BMP180;64454;51.984;9.838;2023-08-08T05:10:05;99755.00;;;14.40
75822;BMP180;64454;51.984;9.838;2023-08-08T05:12:32;99749.00;;;14.70
75822;BMP180;64454;51.984;9.838;2023-08-08T05:14:59;99758.00;;;14.80
75822;BMP180;64454;51.984;9.838;2023-08-08T05:17:26;99748.00;;;14.90
75822;BMP180;64454;51.984;9.838;2023-08-08T05:19:53;99750.00;;;14.60
75822;BMP180;64454;51.984;9.838;2023-08-08T05:22:20;99745.00;;;14.70
75822;BMP180;64454;51.984;9.838;2023-08-08T05:24:48;99744.00;;;14.80
75822;BMP180;64454;51.984;9.838;2023-08-08T05:27:15;99744.00;;;14.60
75822;BMP180;64454;51.984;9.838;2023-08-08T05:29:42;99732.00;;;14.70
75822;BMP180;64454;51.984;9.838;2023-08-08T05:32:09;99746.00;;;14.80
75822;BMP180;64454;51.984;9.838;2023-08-08T05:34:35;99749.00;;;14.80
75822;BMP180;64454;51.984;9.838;2023-08-08T05:37:02;99739.00;;;15.20
75822;BMP180;64454;51.984;9.838;2023-08-08T05:39:30;99743.00;;;15.00
75822;BMP180;64454;51.984;9.838;2023-08-08T05:41:58;99742.00;;;14.90
75822;BMP180;64454;51.984;9.838;2023-08-08T05:44:25;99741.00;;;14.90
75822;BMP180;64454;51.984;9.838;2023-08-08T05:46:52;99739.00;;;14.80
75822;BMP180;64454;51.984;9.838;2023-08-08T05:49:20;99740.00;;;15.10
75822;BMP180;64454;51.984;9.838;2023-08-08T05:51:47;99740.00;;;15.30
75822;BMP180;64454;51.984;9.838;2023-08-08T05:54:16;99740.00;;;15.40
75822;BMP180;64454;51.984;9.838;2023-08-08T05:56:44;99752.00;;;15.20
75822;BMP180;64454;51.984;9.838;2023-08-08T05:59:14;99746.00;;;15.30
75822;BMP180;64454;51.984;9.838;2023-08-08T06:01:42;99753.00;;;15.50
75822;BMP180;64454;51.984;9.838;2023-08-08T06:04:10;99756.00;;;15.20
75822;BMP180;64454;51.984;9.838;2023-08-08T06:06:37;99753.00;;;15.10
75822;BMP180;64454;51.984;9.838;2023-08-08T06:09:04;99743.00;;;15.40
75822;BMP180;64454;51.984;9.838;2023-08-08T06:11:31;99745.00;;;15.10
75822;BMP180;64454;51.984;9.838;2023-08-08T06:13:58;99750.00;;;15.30
75822;BMP180;64454;51.984;9.838;2023-08-08T06:16:26;99749.00;;;15.10
75822;BMP180;64454;51.984;9.838;2023-08-08T06:18:53;99746.00;;;15.30
75822;BMP180;64454;51.984;9.838;2023-08-08T06:21:20;99748.00;;;15.50
75822;BMP180;64454;51.984;9.838;2023-08-08T06:23:46;99750.00;;;15.60
75822;BMP180;64454;51.984;9.838;2023-08-08T06:26:14;99747.00;;;15.30
75822;BMP180;64454;51.984;9.838;2023-08-08T06:28:41;99747.00;;;15.50
75822;BMP180;64454;51.984;9.838;2023-08-08T06:31:08;99745.00;;;15.60
75822;BMP180;64454;51.984;9.838;2023-08-08T06:33:36;99739.00;;;15.60
75822;BMP180;64454;51.984;9.838;2023-08-08T06:36:04;99745.00;;;15.90
75822;BMP180;64454;51.984;9.838;2023-08-08T06:38:32;99744.00;;;15.90
75822;BMP180;64454;51.984;9.838;2023-08-08T06:40:59;99745.00;;;15.90
75822;BMP180;64454;51.984;9.838;2023-08-08T06:43:26;99743.00;;;15.80
75822;BMP180;64454;51.984;9.838;2023-08-08T06:45:54;99744.00;;;15.70
75822;BMP180;64454;51.984;9.838;2023-08-08T06:48:21;99745.00;;;15.50
75822;BMP180;64454;51.984;9.838;2023-08-08T06:50:49;99754.00;;;15.70
75822;BMP180;64454;51.984;9.838;2023-08-08T06:53:16;99747.00;;;16.00
75822;BMP180;64454;51.984;9.838;2023-08-08T06:55:43;99751.00;;;16.20
75822;BMP180;64454;51.984;9.838;2023-08-08T06:58:10;99745.00;;;16.20
75822;BMP180;64454;51.984;9.838;2023-08-08T07:00:36;99740.00;;;16.40
75822;BMP180;64454;51.984;9.838;2023-08-08T07:03:04;99743.00;;;16.60
75822;BMP180;64454;51.984;9.838;2023-08-08T07:05:32;99739.00;;;16.00
75822;BMP180;64454;51.984;9.838;2023-08-08T07:08:00;99735.00;;;16.30
75822;BMP180;64454;51.984;9.838;2023-08-08T07:10:27;99730.00;;;16.80
75822;BMP180;64454;51.984;9.838;2023-08-08T07:12:55;99741.00;;;16.40
75822;BMP180;64454;51.984;9.838;2023-08-08T07:15:22;99723.00;;;16.40
75822;BMP180;64454;51.984;9.838;2023-08-08T07:17:49;99737.00;;;16.70
75822;BMP180;64454;51.984;9.838;2023-08-08T07:20:16;99744.00;;;16.60
75822;BMP180;64454;51.984;9.838;2023-08-08T07:22:43;99730.00;;;16.10
75822;BMP180;64454;51.984;9.838;2023-08-08T07:25:11;99741.00;;;16.50
75822;BMP180;64454;51.984;9.838;2023-08-08T07:27:39;99735.00;;;16.50
75822;BMP180;64454;51.984;9.838;2023-08-08T07:30:07;99736.00;;;16.40
75822;BMP180;64454;51.984;9.838;2023-08-08T07:32:34;99736.00;;;16.70
75822;BMP180;64454;51.984;9.838;2023-08-08T07:35:01;99726.00;;;16.90
75822;BMP180;64454;51.984;9.838;2023-08-08T07:37:31;99721.00;;;16.70
75822;BMP180;64454;51.984;9.838;2023-08-08T07:39:58;99733.00;;;17.00
75822;BMP180;64454;51.984;9.838;2023-08-08T07:42:27;99730.00;;;17.00
75822;BMP180;64454;51.984;9.838;2023-08-08T07:44:54;99727.00;;;17.10
75822;BMP180;64454;51.984;9.838;2023-08-08T07:47:21;99720.00;;;17.00
75822;BMP180;64454;51.984;9.838;2023-08-08T07:49:48;99719.00;;;17.20
75822;BMP180;64454;51.984;9.838;2023-08-08T07:52:14;99724.00;;;17.30
75822;BMP180;64454;51.984;9.838;2023-08-08T07:54:41;99703.00;;;17.50
75822;BMP180;64454;51.984;9.838;2023-08-08T07:57:08;99712.00;;;18.20
75822;BMP180;64454;51.984;9.838;2023-08-08T07:59:37;99710.00;;;18.00
75822;BMP180;64454;51.984;9.838;2023-08-08T08:02:05;99720.00;;;18.20
75822;BMP180;64454;51.984;9.838;2023-08-08T08:04:33;99702.00;;;18.40
75822;BMP180;64454;51.984;9.838;2023-08-08T08:07:00;99703.00;;;18.30
75822;BMP180;64454;51.984;9.838;2023-08-08T08:09:27;99702.00;;;18.50
75822;BMP180;64454;51.984;9.838;2023-08-08T08:11:54;99705.00;;;18.40
75822;BMP180;64454;51.984;9.838;2023-08-08T08:14:21;99700.00;;;18.90
75822;BMP180;64454;51.984;9.838;2023-08-08T08:16:51;99697.00;;;18.90
75822;BMP180;64454;51.984;9.838;2023-08-08T08:19:20;99706.00;;;18.80
75822;BMP180;64454;51.984;9.838;2023-08-08T08:21:47;99687.00;;;18.80
75822;BMP180;64454;51.984;9.838;2023-08-08T08:24:15;99676.00;;;19.80
75822;BMP180;64454;51.984;9.838;2023-08-08T08:26:43;99696.00;;;20.00
75822;BMP180;64454;51.984;9.838;2023-08-08T08:29:10;99693.00;;;20.20
75822;BMP180;64454;51.984;9.838;2023-08-08T08:31:36;99709.00;;;20.00
75822;BMP180;64454;51.984;9.838;2023-08-08T08:34:05;99689.00;;;19.30
75822;BMP180;64454;51.984;9.838;2023-08-08T08:36:32;99699.00;;;19.00
75822;BMP180;64454;51.984;9.838;2023-08-08T08:38:59;99701.00;;;18.90
75822;BMP180;64454;51.984;9.838;2023-08-08T08:41:28;99696.00;;;18.90
75822;BMP180;64454;51.984;9.838;2023-08-08T08:43:55;99711.00;;;18.70
75822;BMP180;64454;51.984;9.838;2023-08-08T08:46:25;99702.00;;;18.50
75822;BMP180;64454;51.984;9.838;2023-08-08T08:48:54;99699.00;;;18.60
75822;BMP180;64454;51.984;9.838;2023-08-08T08:51:23;99697.00;;;18.20
75822;BMP180;64454;51.984;9.838;2023-08-08T08:53:51;99676.00;;;18.50
75822;BMP180;64454;51.984;9.838;2023-08-08T08:56:19;99676.00;;;19.00
75822;BMP180;64454;51.984;9.838;2023-08-08T08:58:46;99680.00;;;19.50
75822;BMP180;64454;51.984;9.838;2023-08-08T09:01:13;99699.00;;;18.90
75822;BMP180;64454;51.984;9.838;2023-08-08T09:03:43;99689.00;;;18.50
75822;BMP180;64454;51.984;9.838;2023-08-08T09:06:11;99706.00;;;18.50
75822;BMP180;64454;51.984;9.838;2023-08-08T09:08:40;99701.00;;;18.20
75822;BMP180;64454;51.984;9.838;2023-08-08T09:11:07;99692.00;;;18.00
75822;BMP180;64454;51.984;9.838;2023-08-08T09:13:36;99686.00;;;18.50
75822;BMP180;64454;51.984;9.838;2023-08-08T09:16:05;99687.00;;;18.60
75822;BMP180;64454;51.984;9.838;2023-08-08T09:18:32;99689.00;;;18.30
75822;BMP180;64454;51.984;9.838;2023-08-08T09:20:59;99689.00;;;17.90
75822;BMP180;64454;51.984;9.838;2023-08-08T09:23:26;99695.00;;;17.90
75822;BMP180;64454;51.984;9.838;2023-08-08T09:25:54;99684.00;;;17.80
75822;BMP180;64454;51.984;9.838;2023-08-08T09:28:21;99685.00;;;17.50
75822;BMP180;64454;51.984;9.838;2023-08-08T09:30:49;99687.00;;;17.30
75822;BMP180;64454;51.984;9.838;2023-08-08T09:33:17;99684.00;;;17.00
75822;BMP180;64454;51.984;9.838;2023-08-08T09:35:44;99673.00;;;17.10
75822;BMP180;64454;51.984;9.838;2023-08-08T09:38:11;99643.00;;;18.00
75822;BMP180;64454;51.984;9.838;2023-08-08T09:40:39;99659.00;;;19.40
75822;BMP180;64454;51.984;9.838;2023-08-08T09:43:08;99637.00;;;20.30
75822;BMP180;64454;51.984;9.838;2023-08-08T09:45:39;99667.00;;;20.00
75822;BMP180;64454;51.984;9.838;2023-08-08T09:48:07;99638.00;;;21.00
75822;BMP180;64454;51.984;9.838;2023-08-08T09:50:35;99647.00;;;21.00
75822;BMP180;64454;51.984;9.838;2023-08-08T09:53:03;99659.00;;;20.70
75822;BMP180;64454;51.984;9.838;2023-08-08T09:55:31;99680.00;;;20.40
75822;BMP180;64454;51.984;9.838;2023-08-08T09:57:58;99695.00;;;19.20
75822;BMP180;64454;51.984;9.838;2023-08-08T10:00:27;99684.00;;;18.80
75822;BMP180;64454;51.984;9.838;2023-08-08T10:02:57;99683.00;;;18.40
75822;BMP180;64454;51.984;9.838;2023-08-08T10:05:26;99688.00;;;17.80
75822;BMP180;64454;51.984;9.838;2023-08-08T10:07:54;99673.00;;;17.50
75822;BMP180;64454;51.984;9.838;2023-08-08T10:10:22;99675.00;;;17.70
75822;BMP180;64454;51.984;9.838;2023-08-08T10:12:50;99653.00;;;17.80
75822;BMP180;64454;51.984;9.838;2023-08-08T10:15:17;99671.00;;;18.90
75822;BMP180;64454;51.984;9.838;2023-08-08T10:17:45;99643.00;;;19.60
75822;BMP180;64454;51.984;9.838;2023-08-08T10:20:13;99667.00;;;20.60
75822;BMP180;64454;51.984;9.838;2023-08-08T10:22:45;99640.00;;;21.00
75822;BMP180;64454;51.984;9.838;2023-08-08T10:25:18;99670.00;;;20.60
75822;BMP180;64454;51.984;9.838;2023-08-08T10:27:46;99626.00;;;20.90
75822;BMP180;64454;51.984;9.838;2023-08-08T10:30:13;99639.00;;;21.70
75822;BMP180;64454;51.984;9.838;2023-08-08T10:32:43;99647.00;;;22.10
75822;BMP180;64454;51.984;9.838;2023-08-08T10:35:13;99631.00;;;22.40
75822;BMP180;64454;51.984;9.838;2023-08-08T10:37:51;99640.00;;;22.30
75822;BMP180;64454;51.984;9.838;2023-08-08T10:40:19;99668.00;;;21.80
75822;BMP180;64454;51.984;9.838;2023-08-08T10:42:47;99675.00;;;21.50
75822;BMP180;64454;51.984;9.838;2023-08-08T10:45:15;99649.00;;;21.70
75822;BMP180;64454;51.984;9.838;2023-08-08T10:47:43;99674.00;;;21.80
75822;BMP180;64454;51.984;9.838;2023-08-08T10:50:14;99664.00;;;21.60
75822;BMP180;64454;51.984;9.838;2023-08-08T10:52:54;99682.00;;;21.00
75822;BMP180;64454;51.984;9.838;2023-08-08T10:55:22;99682.00;;;20.50
75822;BMP180;64454;51.984;9.838;2023-08-08T10:57:58;99684.00;;;19.60
75822;BMP180;64454;51.984;9.838;2023-08-08T11:00:28;99684.00;;;19.50
75822;BMP180;64454;51.984;9.838;2023-08-08T11:02:57;99681.00;;;20.00
75822;BMP180;64454;51.984;9.838;2023-08-08T11:05:29;99647.00;;;21.30
75822;BMP180;64454;51.984;9.838;2023-08-08T11:07:57;99647.00;;;21.20
75822;BMP180;64454;51.984;9.838;2023-08-08T11:10:24;99644.00;;;21.70
75822;BMP180;64454;51.984;9.838;2023-08-08T11:12:58;99655.00;;;22.80
75822;BMP180;64454;51.984;9.838;2023-08-08T11:15:25;99650.00;;;23.50
75822;BMP180;64454;51.984;9.838;2023-08-08T11:17:54;99660.00;;;24.00
75822;BMP180;64454;51.984;9.838;2023-08-08T11:20:21;99655.00;;;23.70
75822;BMP180;64454;51.984;9.838;2023-08-08T11:22:54;99651.00;;;23.70
75822;BMP180;64454;51.984;9.838;2023-08-08T11:25:22;99653.00;;;23.60
75822;BMP180;64454;51.984;9.838;2023-08-08T11:27:53;99663.00;;;23.30
75822;BMP180;64454;51.984;9.838;2023-08-08T11:30:21;99674.00;;;23.10
75822;BMP180;64454;51.984;9.838;2023-08-08T11:32:50;99670.00;;;22.70
75822;BMP180;64454;51.984;9.838;2023-08-08T11:35:17;99645.00;;;21.90
75822;BMP180;64454;51.984;9.838;2023-08-08T11:37:45;99661.00;;;23.50
75822;BMP180;64454;51.984;9.838;2023-08-08T11:40:14;99646.00;;;23.20
75822;BMP180;64454;51.984;9.838;2023-08-08T11:42:42;99636.00;;;22.90
75822;BMP180;64454;51.984;9.838;2023-08-08T11:45:11;99634.00;;;23.60
75822;BMP180;64454;51.984;9.838;2023-08-08T11:47:39;99633.00;;;23.70
75822;BMP180;64454;51.984;9.838;2023-08-08T11:50:09;99635.00;;;23.50
75822;BMP180;64454;51.984;9.838;2023-08-08T11:52:40;99647.00;;;24.20
75822;BMP180;64454;51.984;9.838;2023-08-08T11:55:09;99629.00;;;23.70
75822;BMP180;64454;51.984;9.838;2023-08-08T11:57:38;99617.00;;;24.10
75822;BMP180;64454;51.984;9.838;2023-08-08T12:00:07;99647.00;;;23.70
75822;BMP180;64454;51.984;9.838;2023-08-08T12:02:39;99645.00;;;23.20
75822;BMP180;64454;51.984;9.838;2023-08-08T12:05:07;99642.00;;;23.10
75822;BMP180;64454;51.984;9.838;2023-08-08T12:07:35;99660.00;;;23.10
75822;BMP180;64454;51.984;9.838;2023-08-08T12:10:05;99652.00;;;22.40
75822;BMP180;64454;51.984;9.838;2023-08-08T12:12:33;99655.00;;;22.40
75822;BMP180;64454;51.984;9.838;2023-08-08T12:15:07;99640.00;;;21.80
75822;BMP180;64454;51.984;9.838;2023-08-08T12:17:34;99643.00;;;22.20
75822;BMP180;64454;51.984;9.838;2023-08-08T12:20:03;99644.00;;;21.90
75822;BMP180;64454;51.984;9.838;2023-08-08T12:22:31;99642.00;;;22.00
75822;BMP180;64454;51.984;9.838;2023-08-08T12:24:58;99634.00;;;21.60
75822;BMP180;64454;51.984;9.838;2023-08-08T12:27:25;99642.00;;;22.10
75822;BMP180;64454;51.984;9.838;2023-08-08T12:29:52;99648.00;;;22.60
75822;BMP180;64454;51.984;9.838;2023-08-08T12:32:21;99645.00;;;22.40
75822;BMP180;64454;51.984;9.838;2023-08-08T12:34:49;99652.00;;;22.30
75822;BMP180;64454;51.984;9.838;2023-08-08T12:37:16;99609.00;;;22.70
75822;BMP180;64454;51.984;9.838;2023-08-08T12:39:43;99625.00;;;23.80
75822;BMP180;64454;51.984;9.838;2023-08-08T12:42:10;99619.00;;;23.50
75822;BMP180;64454;51.984;9.838;2023-08-08T12:44:37;99612.00;;;23.30
75822;BMP180;64454;51.984;9.838;2023-08-08T12:47:05;99613.00;;;23.30
75822;BMP180;64454;51.984;9.838;2023-08-08T12:49:33;99625.00;;;23.00
75822;BMP180;64454;51.984;9.838;2023-08-08T12:52:00;99598.00;;;23.60
75822;BMP180;64454;51.984;9.838;2023-08-08T12:54:27;99607.00;;;23.60
75822;BMP180;64454;51.984;9.838;2023-08-08T12:56:54;99629.00;;;23.30
75822;BMP180;64454;51.984;9.838;2023-08-08T12:59:21;99627.00;;;23.50
75822;BMP180;64454;51.984;9.838;2023-08-08T13:01:48;99618.00;;;22.90
75822;BMP180;64454;51.984;9.838;2023-08-08T13:04:17;99612.00;;;23.50
75822;BMP180;64454;51.984;9.838;2023-08-08T13:06:47;99640.00;;;23.60
75822;BMP180;64454;51.984;9.838;2023-08-08T13:09:17;99647.00;;;22.30
75822;BMP180;64454;51.984;9.838;2023-08-08T13:11:45;99649.00;;;22.10
75822;BMP180;64454;51.984;9.838;2023-08-08T13:14:13;99659.00;;;21.40
75822;BMP180;64454;51.984;9.838;2023-08-08T13:16:40;99648.00;;;20.90
75822;BMP180;64454;51.984;9.838;2023-08-08T13:19:07;99651.00;;;20.80
75822;BMP180;64454;51.984;9.838;2023-08-08T13:21:34;99651.00;;;20.90
75822;BMP180;64454;51.984;9.838;2023-08-08T13:24:05;99653.00;;;20.90
75822;BMP180;64454;51.984;9.838;2023-08-08T13:26:32;99650.00;;;20.80
75822;BMP180;64454;51.984;9.838;2023-08-08T13:28:59;99648.00;;;20.90
75822;BMP180;64454;51.984;9.838;2023-08-08T13:31:26;99647.00;;;21.40
75822;BMP180;64454;51.984;9.838;2023-08-08T13:33:53;99642.00;;;21.80
75822;BMP180;64454;51.984;9.838;2023-08-08T13:36:20;99648.00;;;22.20
75822;BMP180;64454;51.984;9.838;2023-08-08T13:38:46;99639.00;;;22.30
75822;BMP180;64454;51.984;9.838;2023-08-08T13:41:15;99636.00;;;22.20
75822;BMP180;64454;51.984;9.838;2023-08-08T13:43:42;99641.00;;;22.60
75822;BMP180;64454;51.984;9.838;2023-08-08T13:46:09;99634.00;;;22.20
75822;BMP180;64454;51.984;9.838;2023-08-08T13:48:36;99630.00;;;22.40
75822;BMP180;64454;51.984;9.838;2023-08-08T13:51:03;99628.00;;;22.20
75822;BMP180;64454;51.984;9.838;2023-08-08T13:53:30;99631.00;;;22.30
75822;BMP180;64454;51.984;9.838;2023-08-08T13:55:57;99634.00;;;22.30
75822;BMP180;64454;51.984;9.838;2023-08-08T13:58:26;99641.00;;;22.50
75822;BMP180;64454;51.984;9.838;2023-08-08T14:00:54;99629.00;;;22.20
75822;BMP180;64454;51.984;9.838;2023-08-08T14:03:22;99638.00;;;22.10
75822;BMP180;64454;51.984;9.838;2023-08-08T14:05:50;99635.00;;;21.90
75822;BMP180;64454;51.984;9.838;2023-08-08T14:08:18;99647.00;;;21.80
75822;BMP180;64454;51.984;9.838;2023-08-08T14:10:45;99634.00;;;21.60
75822;BMP180;64454;51.984;9.838;2023-08-08T14:13:12;99644.00;;;21.50